Flight Track Log - Related Links

Times and Time Zones

All times are in EST time to prevent confusion due to time zone crossing. See the VH-HLS flight status page for this flight to view local times or setup timezone preferences in your user account.

Time Position Orientation Groundspeed Altitude Reporting Facility
EST Latitude Longitude Course Direction KTS MPH feet Rate Location/Type
Fri 03:56:24 AM -28.9477 114.7416 169° South 9,000  Level Aus ATC (Calculated)
Fri 03:57:12 AM -28.9982 114.7530 169° South 9,000 Level Aus ATC (Calculated)
Fri 03:59:00 AM -29.0852 114.7726 169° South  Level FlightAware Approximate
Fri 03:59:12 AM -29.0977 114.7754 170° South 9,000  Level Aus ATC (Calculated)
Fri 04:00:00 AM -29.1336 114.7836 169° South  Level FlightAware Approximate
Fri 04:01:00 AM -29.1847 114.7951 169° South  Level FlightAware Approximate
Fri 04:02:00 AM -29.2315 114.8057 169° South  Level FlightAware Approximate
Fri 04:02:06 AM -29.2001 114.7986 170° South 9,000  Level Aus ATC (Calculated)
Fri 04:04:00 AM -29.2920 114.8195 169° South  Level FlightAware Approximate
Fri 04:05:00 AM -29.3404 114.8305 169° South  Level FlightAware Approximate
Fri 04:05:00 AM -29.3393 114.8302 171° South 9,000  Level Aus ATC (Calculated)
Fri 04:06:00 AM -29.3877 114.8412 169° South  Level FlightAware Approximate
Fri 04:07:00 AM -29.4360 114.8522 169° South  Level FlightAware Approximate
Fri 04:07:40 AM -29.4785 114.8619 174° South 9,000  Level Aus ATC (Calculated)
Fri 04:07:45 AM -29.4785 114.8619 174° South 9,000 20 Level Aus ATC (Calculated)
Fri 04:09:00 AM -29.5373 114.8753 169° South  Level FlightAware Approximate
Fri 04:10:00 AM -29.5844 114.8861 169° South  Level FlightAware Approximate
Fri 04:11:00 AM -29.6315 114.8968 169° South  Level FlightAware Approximate
Fri 04:12:00 AM -29.6786 114.9076 169° South  Level FlightAware Approximate
Fri 04:12:35 AM -29.5484 114.8704 169° South 185 213 9,100  Level Aus ATC (RADAR)
Fri 04:13:20 AM -29.5852 114.8798 167° South 181 208 9,100  Level Aus ATC (RADAR)
Fri 04:13:30 AM -29.5933 114.8816 169° South 181 208 9,100 -43 Level Aus ATC (RADAR)
Fri 04:15:40 AM -29.7035 114.9057 169° South 179 206 9,000 -37 Descending Aus ATC (RADAR)
Fri 04:16:14 AM -29.7333 114.9113 171° South 184 212 9,000  Level Aus ATC (RADAR)
Fri 04:16:29 AM -29.7456 114.9137 170° South 184 212  Descending Aus ATC (RADAR)
Fri 04:17:34 AM -29.7992 114.9264 168° South 177 204 9,000 5,143 Climbing Aus ATC (RADAR)
Fri 04:18:14 AM -29.8308 114.9346 167° South 176 203 9,000  Level Aus ATC (RADAR)
Fri 04:20:39 AM -29.9474 114.9558 171° South 190 219 9,000  Level Aus ATC (RADAR)
Fri 04:21:14 AM -29.9749 114.9636 166° South 177 204 9,000  Level Aus ATC (RADAR)
Fri 04:21:59 AM -30.0111 114.9732 167° South 172 198 9,000  Level Aus ATC (RADAR)
Fri 04:22:34 AM -30.0394 114.9800 168° South 176 203 9,000  Level Aus ATC (RADAR)
Fri 04:23:09 AM -30.0676 114.9864 169° South 170 196 9,000  Level Aus ATC (RADAR)
Fri 04:23:44 AM -30.0958 114.9942 167° South 168 193 9,000  Level Aus ATC (RADAR)
Fri 04:24:19 AM -30.1245 115.0011 168° South 175 201 9,000  Level Aus ATC (RADAR)
Fri 04:25:29 AM -30.1855 115.0078 175° South 190 219 9,000  Level Aus ATC (RADAR)
Fri 04:25:54 AM -30.2065 115.0154 163° South 198 228 9,000  Level Aus ATC (RADAR)
Fri 04:26:29 AM -30.2345 115.0210 170° South 185 213 9,000  Level Aus ATC (RADAR)
Fri 04:27:14 AM -30.2713 115.0318 166° South 181 208 9,000  Level Aus ATC (RADAR)
Fri 04:27:48 AM -30.3003 115.0390 168° South 176 203 9,000  Level Aus ATC (RADAR)
Fri 04:28:38 AM -30.3426 115.0488 169° South 182 209 9,000  Level Aus ATC (RADAR)
Fri 04:28:58 AM -30.3594 115.0541 165° South 186 214 9,000  Level Aus ATC (RADAR)
Fri 04:29:33 AM -30.3893 115.0608 169° South 185 213 9,000  Level Aus ATC (RADAR)
Fri 04:30:33 AM -30.4402 115.0752 166° South 186 214 9,000  Level Aus ATC (RADAR)
Fri 04:31:03 AM -30.4654 115.0847 162° South 186 214 9,000  Level Aus ATC (RADAR)
Fri 04:31:38 AM -30.4949 115.0949 163° South 188 216 9,000  Level Aus ATC (RADAR)
Fri 04:32:18 AM -30.5281 115.1067 163° South 185 213 9,000  Level Aus ATC (RADAR)
Fri 04:32:53 AM -30.5580 115.1148 167° South 185 213 9,000  Level Aus ATC (RADAR)
Fri 04:33:38 AM -30.5972 115.1256 167° South 186 214 9,000  Level Aus ATC (RADAR)
Fri 04:34:03 AM -30.6188 115.1318 166° South 187 215 9,000  Level Aus ATC (RADAR)
Fri 04:34:38 AM -30.6481 115.1419 163° South 185 213 9,000  Level Aus ATC (RADAR)
Fri 04:35:23 AM -30.6868 115.1529 166° South 191 220 9,000  Level Aus ATC (RADAR)
Fri 04:35:48 AM -30.7080 115.1597 165° South 192 221 9,000  Level Aus ATC (RADAR)
Fri 04:36:22 AM -30.7374 115.1681 166° South 183 211 9,000  Level Aus ATC (RADAR)
Fri 04:37:03 AM -30.7713 115.1790 165° South 185 213 9,000  Level Aus ATC (RADAR)
Fri 04:37:42 AM -30.8069 115.1885 167° South 194 223 9,000  Level Aus ATC (RADAR)
Fri 04:38:17 AM -30.8371 115.1988 164° South 192 221 9,000  Level Aus ATC (RADAR)
Fri 04:38:47 AM -30.8630 115.2070 165° South 192 221 9,000  Level Aus ATC (RADAR)
Fri 04:39:22 AM -30.8928 115.2155 166° South 188 216 9,000  Level Aus ATC (RADAR)
Fri 04:40:07 AM -30.9314 115.2266 166° South 186 214 9,000  Level Aus ATC (RADAR)
Fri 04:40:42 AM -30.9613 115.2350 166° South 186 214 9,000  Level Aus ATC (RADAR)
Fri 04:41:17 AM -30.9917 115.2434 167° South 191 220 9,000  Level Aus ATC (RADAR)
Fri 04:41:52 AM -31.0212 115.2530 164° South 187 215 9,000  Level Aus ATC (RADAR)
Fri 04:42:22 AM -31.0480 115.2602 167° South 197 227 9,000  Level Aus ATC (RADAR)
Fri 04:42:57 AM -31.0778 115.2693 165° South 191 220 9,000  Level Aus ATC (RADAR)
Fri 04:43:42 AM -31.1167 115.2803 166° South 189 217 9,000  Level Aus ATC (RADAR)
Fri 04:44:07 AM -31.1384 115.2869 165° South 192 221 9,000  Level Aus ATC (RADAR)
Fri 04:44:41 AM -31.1684 115.2954 166° South 187 215 9,000  Level Aus ATC (RADAR)
Fri 04:45:31 AM -31.2119 115.3085 166° South 193 222 9,000  Level Aus ATC (RADAR)
Fri 04:45:52 AM -31.2290 115.3141 164° South 193 222 9,000  Level Aus ATC (RADAR)
Fri 04:46:31 AM -31.2639 115.3242 166° South 191 220 9,000  Level Aus ATC (RADAR)
Fri 04:47:16 AM -31.3033 115.3366 165° South 193 222 9,000  Level Aus ATC (RADAR)
Fri 04:47:51 AM -31.3339 115.3462 165° South 193 222 9,000  Level Aus ATC (RADAR)
Fri 04:48:31 AM -31.3686 115.3566 166° South 193 222 9,000  Level Aus ATC (RADAR)
Fri 04:48:56 AM -31.3904 115.3629 166° South 193 222 9,000  Level Aus ATC (RADAR)
Fri 04:49:36 AM -31.4256 115.3729 166° South 192 221 9,000  Level Aus ATC (RADAR)
Fri 04:50:31 AM -31.4705 115.3978 155° Southeast 193 222 9,000  Level Aus ATC (RADAR)
Fri 04:50:56 AM -31.4881 115.4147 141° Southeast 192 221 9,000  Level Aus ATC (RADAR)
Fri 04:51:31 AM -31.5141 115.4358 145° Southeast 191 220 9,000 -150 Level Aus ATC (RADAR)
Fri 04:52:16 AM -31.5494 115.4643 145° Southeast 203 234 8,800 -450 Descending Aus ATC (RADAR)
Fri 04:52:51 AM -31.5772 115.4888 143° Southeast 211 243 8,400 -738 Descending Aus ATC (RADAR)
Fri 04:53:21 AM -31.6010 115.5106 142° Southeast 213 245 8,000 -646 Descending Aus ATC (RADAR)
Fri 04:53:56 AM -31.6294 115.5352 144° Southeast 213 245 7,700 -600 Descending Aus ATC (RADAR)
Fri 04:54:31 AM -31.6584 115.5596 144° Southeast 217 250 7,300 -684 Descending Aus ATC (RADAR)
Fri 04:55:15 AM -31.6950 115.5904 144° Southeast 215 247 6,800 -835 Descending Aus ATC (RADAR)
Fri 04:55:50 AM -31.7247 115.6116 149° Southeast 215 247 6,200 -986 Descending Aus ATC (RADAR)
Fri 04:56:28 AM -31.7540 115.6335 148° Southeast 212 244 5,600 -1,050 Descending Aus ATC (RADAR)
Fri 04:57:10 AM -31.7887 115.6645 143° Southeast 207 238 4,800 -985 Descending Aus ATC (RADAR)
Fri 04:57:35 AM -31.8086 115.6796 147° Southeast 202 232 4,500 -900 Descending Aus ATC (RADAR)
Fri 04:58:10 AM -31.8336 115.7028 142° Southeast 197 227 3,900 -1,050 Descending Aus ATC (RADAR)
Fri 04:58:55 AM -31.8672 115.7301 145° Southeast 196 226 3,100 -825 Descending Aus ATC (RADAR)
Fri 04:59:30 AM -31.8918 115.7515 143° Southeast 188 216 2,800 -545 Descending Aus ATC (RADAR)
Fri 05:00:01 AM -31.9133 115.7678 147° Southeast 183 211 2,500 -533 Descending Aus ATC (RADAR)
Fri 05:01:00 AM -31.9524 115.8044 142° Southeast 173 199 2,000 -571 Descending Aus ATC (RADAR)
Fri 05:01:25 AM -31.9696 115.8183 146° Southeast 176 203 1,700 -400 Descending Aus ATC (RADAR)
Fri 05:02:00 AM -31.9932 115.8327 153° Southeast 162 186 1,600 -75 Descending Aus ATC (RADAR)
Fri 05:02:45 AM -32.0225 115.8452 160° South 148 170 1,600  Level Aus ATC (RADAR)
Fri 05:03:20 AM -32.0451 115.8521 166° South 142 163 1,600 -348 Level Aus ATC (RADAR)
Fri 05:03:54 AM -32.0673 115.8484 188° South 141 162 1,200 -750 Descending Aus ATC (RADAR)
Fri 05:04:24 AM -32.0861 115.8478 182° South 137 158 800 -636 Descending Aus ATC (RADAR)
Fri 05:05:00 AM -32.0967 115.8614 133° Southeast 102 117 500 -343 Descending Aus ATC (RADAR)
Fri 05:06:09 AM -32.1039 115.8821 112° Southeast 41 47 200 -261 Descending Aus ATC (RADAR)

Login

Don't have an account? Register now (free) for customized features, flight alerts, and more!